createdAt,value
2018-05-21T00:01:51.679Z,94469.83
2018-05-21T00:04:19.321Z,94465.42
2018-05-21T00:06:46.976Z,94470.09
2018-05-21T00:09:14.613Z,94476.69
2018-05-21T00:11:42.245Z,94478.13
2018-05-21T00:14:09.965Z,94480.50
2018-05-21T00:16:37.583Z,94475.37
2018-05-21T00:19:05.219Z,94470.34
2018-05-21T00:21:32.817Z,94465.64
2018-05-21T00:24:00.458Z,94467.67
2018-05-21T00:26:28.052Z,94465.77
2018-05-21T00:28:55.663Z,94458.49
2018-05-21T00:31:23.287Z,94465.16
2018-05-21T00:33:50.948Z,94466.48
2018-05-21T00:36:18.545Z,94469.91
2018-05-21T00:38:46.175Z,94457.90
2018-05-21T00:41:13.840Z,94452.66
2018-05-21T00:43:41.524Z,94451.55
2018-05-21T00:46:09.182Z,94447.23
2018-05-21T00:48:36.800Z,94448.69
2018-05-21T00:51:04.547Z,94434.66
2018-05-21T00:53:32.199Z,94434.44
2018-05-21T00:55:59.780Z,94431.44
2018-05-21T00:58:27.448Z,94427.77
2018-05-21T01:00:55.061Z,94426.41
2018-05-21T01:03:22.644Z,94418.62
2018-05-21T01:05:50.316Z,94414.23
2018-05-21T01:08:17.943Z,94418.33
2018-05-21T01:10:45.547Z,94424.22
2018-05-21T01:13:13.215Z,94422.17
2018-05-21T01:15:40.887Z,94424.56
2018-05-21T01:18:09.398Z,94420.32
2018-05-21T01:20:37.019Z,94415.55
2018-05-21T01:23:04.603Z,94410.02
2018-05-21T01:25:32.264Z,94415.86
2018-05-21T01:27:59.936Z,94412.16
2018-05-21T01:30:27.548Z,94412.16
2018-05-21T01:32:55.183Z,94418.66
2018-05-21T01:35:22.853Z,94416.00
2018-05-21T01:37:50.456Z,94418.39
2018-05-21T01:40:18.054Z,94413.34
2018-05-21T01:42:45.707Z,94405.23
2018-05-21T01:45:13.290Z,94403.22
2018-05-21T01:47:40.934Z,94401.81
2018-05-21T01:50:15.878Z,94397.41
2018-05-21T01:52:43.528Z,94392.36
2018-05-21T01:55:11.127Z,94386.00
2018-05-21T01:57:38.787Z,94388.34
2018-05-21T02:00:06.433Z,94384.62
2018-05-21T02:02:34.088Z,94391.41
2018-05-21T02:05:01.710Z,94392.63
2018-05-21T02:07:29.357Z,94384.22
2018-05-21T02:09:56.994Z,94384.72
2018-05-21T02:12:24.662Z,94378.41
2018-05-21T02:14:52.250Z,94389.81
2018-05-21T02:17:19.914Z,94390.80
2018-05-21T02:19:47.504Z,94382.50
2018-05-21T02:22:15.145Z,94382.47
2018-05-21T02:24:42.754Z,94378.79
2018-05-21T02:27:10.412Z,94374.52
2018-05-21T02:29:38.078Z,94364.89
2018-05-21T02:32:05.731Z,94366.55
2018-05-21T02:34:33.406Z,94369.13
2018-05-21T02:37:01.052Z,94369.31
2018-05-21T02:39:28.659Z,94363.43
2018-05-21T02:41:56.309Z,94362.83
2018-05-21T02:44:23.913Z,94362.34
2018-05-21T02:46:51.549Z,94362.58
2018-05-21T02:49:19.210Z,94358.17
2018-05-21T02:51:46.825Z,94360.23
2018-05-21T02:54:14.453Z,94358.31
2018-05-21T02:56:42.084Z,94365.88
2018-05-21T02:59:09.740Z,94368.37
2018-05-21T03:01:37.432Z,94366.62
2018-05-21T03:04:05.032Z,94370.41
2018-05-21T03:06:32.695Z,94368.84
2018-05-21T03:09:00.323Z,94364.16
2018-05-21T03:11:28.016Z,94367.98
2018-05-21T03:13:55.600Z,94373.30
2018-05-21T03:16:23.242Z,94380.01
2018-05-21T03:18:50.867Z,94374.38
2018-05-21T03:21:18.524Z,94369.63
2018-05-21T03:23:46.132Z,94370.73
2018-05-21T03:26:13.758Z,94372.00
2018-05-21T03:28:41.358Z,94377.65
2018-05-21T03:31:09.015Z,94369.94
2018-05-21T03:33:36.678Z,94376.55
2018-05-21T03:36:04.394Z,94375.58
2018-05-21T03:38:32.085Z,94374.35
2018-05-21T03:40:59.729Z,94372.05
2018-05-21T03:43:27.384Z,94371.92
2018-05-21T03:45:55.024Z,94373.20
2018-05-21T03:48:22.608Z,94379.84
2018-05-21T03:50:50.252Z,94383.59
2018-05-21T03:53:18.965Z,94377.22
2018-05-21T03:55:46.604Z,94381.72
2018-05-21T03:58:25.983Z,94383.63
2018-05-21T04:01:05.283Z,94377.36
2018-05-21T04:03:44.709Z,94390.69
2018-05-21T04:06:12.476Z,94386.86
2018-05-21T04:08:40.088Z,94384.27
2018-05-21T04:11:07.807Z,94392.08
2018-05-21T04:13:35.482Z,94381.23
2018-05-21T04:16:04.292Z,94380.83
2018-05-21T04:18:31.996Z,94381.67
2018-05-21T04:20:59.618Z,94373.22
2018-05-21T04:23:27.276Z,94376.59
2018-05-21T04:25:54.982Z,94384.76
2018-05-21T04:28:23.582Z,94384.84
2018-05-21T04:30:51.181Z,94382.36
2018-05-21T04:33:18.849Z,94382.50
2018-05-21T04:35:46.463Z,94380.88
2018-05-21T04:38:14.088Z,94377.95
2018-05-21T04:40:41.772Z,94383.48
2018-05-21T04:43:09.430Z,94382.61
2018-05-21T04:45:37.079Z,94379.80
2018-05-21T04:48:04.691Z,94389.27
2018-05-21T04:50:32.347Z,94384.55
2018-05-21T04:53:00.057Z,94390.01
2018-05-21T04:55:27.709Z,94383.09
2018-05-21T04:57:55.396Z,94385.06
2018-05-21T05:00:23.049Z,94383.94
2018-05-21T05:02:50.645Z,94382.27
2018-05-21T05:05:18.306Z,94376.74
2018-05-21T05:07:45.977Z,94378.31
2018-05-21T05:10:13.634Z,94381.09
2018-05-21T05:12:41.317Z,94374.07
2018-05-21T05:15:08.966Z,94376.77
2018-05-21T05:17:36.614Z,94374.18
2018-05-21T05:20:04.364Z,94373.17
2018-05-21T05:22:31.981Z,94367.00
2018-05-21T05:25:00.505Z,94362.33
2018-05-21T05:27:28.121Z,94364.80
2018-05-21T05:29:55.777Z,94364.12
2018-05-21T05:32:23.377Z,94359.64
2018-05-21T05:34:51.025Z,94359.23
2018-05-21T05:37:18.639Z,94354.36
2018-05-21T05:39:46.470Z,94355.49
2018-05-21T05:42:14.245Z,94353.77
2018-05-21T05:44:42.344Z,94351.27
2018-05-21T05:47:10.319Z,94351.63
2018-05-21T05:49:38.222Z,94351.27
2018-05-21T05:52:06.087Z,94349.89
2018-05-21T05:54:35.213Z,94344.55
2018-05-21T05:57:03.215Z,94340.31
2018-05-21T05:59:31.033Z,94340.66
2018-05-21T06:01:59.218Z,94337.06
2018-05-21T06:04:28.037Z,94341.55
2018-05-21T06:06:55.762Z,94345.37
2018-05-21T06:09:23.900Z,94342.52
2018-05-21T06:11:51.810Z,94341.23
2018-05-21T06:14:20.564Z,94333.67
2018-05-21T06:16:48.363Z,94332.23
2018-05-21T06:19:17.271Z,94328.93
2018-05-21T06:21:45.029Z,94325.83
2018-05-21T06:24:12.802Z,94331.04
2018-05-21T06:26:42.018Z,94323.17
2018-05-21T06:29:09.901Z,94326.98
2018-05-21T06:31:37.573Z,94329.86
2018-05-21T06:34:05.297Z,94322.13
2018-05-21T06:36:32.986Z,94323.05
2018-05-21T06:39:00.633Z,94321.72
2018-05-21T06:41:28.340Z,94319.34
2018-05-21T06:43:55.951Z,94317.13
2018-05-21T06:46:23.566Z,94312.28
2018-05-21T06:48:51.883Z,94312.52
2018-05-21T06:51:20.364Z,94311.13
2018-05-21T06:53:48.824Z,94306.23
2018-05-21T06:56:17.433Z,94302.60
2018-05-21T06:58:45.180Z,94296.48
2018-05-21T07:01:12.905Z,94293.00
2018-05-21T07:03:40.633Z,94289.53
2018-05-21T07:06:08.667Z,94293.20
2018-05-21T07:08:36.347Z,94284.55
2018-05-21T07:11:03.998Z,94282.14
2018-05-21T07:13:31.741Z,94283.44
2018-05-21T07:15:59.585Z,94284.52
2018-05-21T07:18:27.757Z,94282.64
2018-05-21T07:20:57.097Z,94281.77
2018-05-21T07:23:24.842Z,94280.18
2018-05-21T07:25:52.846Z,94274.92
2018-05-21T07:28:22.466Z,94267.92
2018-05-21T07:30:50.839Z,94266.23
2018-05-21T07:33:18.693Z,94264.47
2018-05-21T07:35:46.943Z,94261.52
2018-05-21T07:38:14.841Z,94261.75
2018-05-21T07:40:45.194Z,94253.56
2018-05-21T07:43:12.832Z,94244.97
2018-05-21T07:45:40.663Z,94248.94
2018-05-21T07:48:08.325Z,94251.22
2018-05-21T07:50:36.091Z,94241.44
2018-05-21T07:53:06.563Z,94240.89
2018-05-21T07:55:34.181Z,94242.31
2018-05-21T07:58:01.855Z,94239.95
2018-05-21T08:00:29.540Z,94234.22
2018-05-21T08:02:57.181Z,94236.47
2018-05-21T08:05:24.907Z,94232.63
2018-05-21T08:07:52.607Z,94232.42
2018-05-21T08:10:20.357Z,94229.12
2018-05-21T08:12:48.074Z,94222.64
2018-05-21T08:15:15.743Z,94220.70
2018-05-21T08:17:43.446Z,94221.83
2018-05-21T08:20:11.353Z,94218.66
2018-05-21T08:22:39.013Z,94210.09
2018-05-21T08:25:06.675Z,94209.58
2018-05-21T08:27:34.361Z,94211.14
2018-05-21T08:30:02.056Z,94209.44
2018-05-21T08:32:29.681Z,94205.70
2018-05-21T08:34:57.349Z,94204.64
2018-05-21T08:37:25.035Z,94201.38
2018-05-21T08:39:52.713Z,94198.91
2018-05-21T08:42:21.214Z,94194.09
2018-05-21T08:44:48.831Z,94198.30
2018-05-21T08:47:16.504Z,94195.03
2018-05-21T08:49:44.125Z,94192.33
2018-05-21T08:52:11.797Z,94192.86
2018-05-21T08:54:39.410Z,94197.73
2018-05-21T08:57:07.116Z,94198.58
2018-05-21T08:59:34.723Z,94194.12
2018-05-21T09:02:02.451Z,94194.78
2018-05-21T09:04:30.197Z,94185.40
2018-05-21T09:06:57.870Z,94189.15
2018-05-21T09:09:25.550Z,94186.13
2018-05-21T09:11:53.218Z,94182.89
2018-05-21T09:14:20.844Z,94188.14
2018-05-21T09:16:48.617Z,94190.97
2018-05-21T09:19:17.114Z,94174.86
2018-05-21T09:21:44.773Z,94179.11
2018-05-21T09:24:12.473Z,94174.77
2018-05-21T09:26:40.155Z,94183.75
2018-05-21T09:29:07.844Z,94177.06
2018-05-21T09:31:35.576Z,94180.92
2018-05-21T09:34:03.214Z,94178.20
2018-05-21T09:36:30.907Z,94166.65
2018-05-21T09:38:58.548Z,94177.37
2018-05-21T09:41:26.245Z,94171.37
2018-05-21T09:43:53.860Z,94174.30
2018-05-21T09:46:21.534Z,94168.34
2018-05-21T09:48:49.208Z,94160.74
2018-05-21T09:51:16.908Z,94158.67
2018-05-21T09:53:44.548Z,94159.91
2018-05-21T09:56:12.207Z,94151.20
2018-05-21T09:58:39.832Z,94154.50
2018-05-21T10:01:07.515Z,94145.29
2018-05-21T10:03:35.214Z,94134.55
2018-05-21T10:06:02.872Z,94145.11
2018-05-21T10:08:30.549Z,94146.57
2018-05-21T10:10:59.194Z,94139.37
2018-05-21T10:13:26.790Z,94136.62
2018-05-21T10:15:54.438Z,94132.25
2018-05-21T10:18:22.139Z,94126.34
2018-05-21T10:20:49.766Z,94123.41
2018-05-21T10:23:17.429Z,94125.26
2018-05-21T10:25:45.054Z,94125.75
2018-05-21T10:28:12.735Z,94118.68
2018-05-21T10:30:40.350Z,94116.57
2018-05-21T10:33:08.074Z,94105.78
2018-05-21T10:35:35.711Z,94109.21
2018-05-21T10:38:03.384Z,94102.20
2018-05-21T10:40:31.084Z,94100.48
2018-05-21T10:42:58.695Z,94100.52
2018-05-21T10:45:26.369Z,94099.88
2018-05-21T10:47:54.022Z,94099.11
2018-05-21T10:50:21.663Z,94096.43
2018-05-21T10:52:49.301Z,94098.72
2018-05-21T10:55:17.019Z,94098.71
2018-05-21T10:57:44.775Z,94091.44
2018-05-21T11:00:12.399Z,94095.10
2018-05-21T11:02:40.135Z,94091.36
2018-05-21T11:05:07.809Z,94096.10
2018-05-21T11:07:35.507Z,94090.88
2018-05-21T11:10:03.168Z,94093.25
2018-05-21T11:12:30.879Z,94091.13
2018-05-21T11:14:58.630Z,94092.48
2018-05-21T11:17:26.288Z,94084.38
2018-05-21T11:19:53.952Z,94089.48
2018-05-21T11:22:21.585Z,94083.33
2018-05-21T11:24:49.245Z,94075.39
2018-05-21T11:27:16.941Z,94080.00
2018-05-21T11:29:44.616Z,94075.80
2018-05-21T11:32:12.229Z,94078.75
2018-05-21T11:34:39.917Z,94087.42
2018-05-21T11:37:07.602Z,94080.97
2018-05-21T11:39:35.255Z,94090.22
2018-05-21T11:42:02.859Z,94080.67
2018-05-21T11:44:30.556Z,94084.79
2018-05-21T11:46:58.649Z,94073.50
2018-05-21T11:49:27.495Z,94074.19
2018-05-21T11:51:55.194Z,94070.87
2018-05-21T11:54:22.919Z,94078.47
2018-05-21T11:56:51.135Z,94072.92
2018-05-21T11:59:19.008Z,94070.61
2018-05-21T12:01:46.624Z,94070.43
2018-05-21T12:04:14.313Z,94068.08
2018-05-21T12:06:41.972Z,94063.82
2018-05-21T12:09:09.701Z,94065.96
2018-05-21T12:11:37.367Z,94061.53
2018-05-21T12:14:05.084Z,94056.83
2018-05-21T12:16:32.728Z,94054.42
2018-05-21T12:19:00.393Z,94051.94
2018-05-21T12:21:28.089Z,94043.56
2018-05-21T12:23:55.787Z,94049.28
2018-05-21T12:26:23.951Z,94046.42
2018-05-21T12:28:51.645Z,94043.61
2018-05-21T12:31:19.293Z,94032.91
2018-05-21T12:33:46.919Z,94036.73
2018-05-21T12:36:14.587Z,94031.75
2018-05-21T12:38:42.216Z,94031.00
2018-05-21T12:41:09.959Z,94032.74
2018-05-21T12:43:37.613Z,94025.44
2018-05-21T12:46:05.440Z,94028.88
2018-05-21T12:48:33.191Z,94023.36
2018-05-21T12:51:00.811Z,94022.53
2018-05-21T12:53:28.555Z,94014.77
2018-05-21T12:55:56.228Z,94014.19
2018-05-21T12:58:23.873Z,94017.97
2018-05-21T13:00:51.503Z,94009.97
2018-05-21T13:03:19.157Z,94008.92
2018-05-21T13:05:46.760Z,94006.98
2018-05-21T13:08:14.456Z,93999.11
2018-05-21T13:10:42.078Z,93995.73
2018-05-21T13:13:09.811Z,93993.56
2018-05-21T13:15:37.461Z,93986.09
2018-05-21T13:18:05.197Z,93982.28
2018-05-21T13:20:32.887Z,93975.25
2018-05-21T13:23:00.556Z,93982.17
2018-05-21T13:25:28.167Z,93971.85
2018-05-21T13:27:55.872Z,93973.28
2018-05-21T13:30:23.552Z,93978.08
2018-05-21T13:32:51.248Z,93970.06
2018-05-21T13:35:18.904Z,93965.35
2018-05-21T13:37:46.516Z,93965.65
2018-05-21T13:40:15.355Z,93958.44
2018-05-21T13:42:43.038Z,93950.77
2018-05-21T13:45:10.658Z,93948.77
2018-05-21T13:47:38.337Z,93953.09
2018-05-21T13:50:06.042Z,93944.77
2018-05-21T13:52:33.722Z,93943.16
2018-05-21T13:55:01.374Z,93938.30
2018-05-21T13:57:29.019Z,93938.12
2018-05-21T13:59:56.677Z,93939.86
2018-05-21T14:02:24.280Z,93938.48
2018-05-21T14:04:52.364Z,93941.09
2018-05-21T14:07:20.981Z,93936.56
2018-05-21T14:09:48.611Z,93931.41
2018-05-21T14:12:16.858Z,93931.91
2018-05-21T14:14:44.671Z,93928.47
2018-05-21T14:17:12.395Z,93928.72
2018-05-21T14:19:40.102Z,93926.17
2018-05-21T14:22:07.725Z,93930.75
2018-05-21T14:24:35.378Z,93926.83
2018-05-21T14:27:04.023Z,93918.28
2018-05-21T14:29:31.859Z,93920.11
2018-05-21T14:31:59.582Z,93921.00
2018-05-21T14:34:27.385Z,93920.83
2018-05-21T14:36:55.112Z,93912.91
2018-05-21T14:39:22.769Z,93905.39
2018-05-21T14:41:50.575Z,93912.47
2018-05-21T14:44:18.190Z,93909.57
2018-05-21T14:46:45.909Z,93902.56
2018-05-21T14:49:13.544Z,93896.42
2018-05-21T14:51:41.249Z,93904.03
2018-05-21T14:54:08.979Z,93896.98
2018-05-21T14:56:36.955Z,93895.91
2018-05-21T14:59:04.734Z,93889.31
2018-05-21T15:01:32.580Z,93892.06
2018-05-21T15:04:00.239Z,93890.41
2018-05-21T15:06:27.994Z,93892.09
2018-05-21T15:08:55.600Z,93886.27
2018-05-21T15:11:23.296Z,93886.70
2018-05-21T15:13:51.016Z,93880.13
2018-05-21T15:16:18.626Z,93882.33
2018-05-21T15:18:46.312Z,93883.58
2018-05-21T15:21:13.917Z,93880.11
2018-05-21T15:23:41.634Z,93883.88
2018-05-21T15:26:09.281Z,93877.94
2018-05-21T15:28:36.957Z,93882.49
2018-05-21T15:31:04.654Z,93876.20
2018-05-21T15:33:32.995Z,93871.84
2018-05-21T15:36:00.721Z,93867.04
2018-05-21T15:38:28.455Z,93872.17
2018-05-21T15:40:56.149Z,93878.13
2018-05-21T15:43:23.843Z,93871.51
2018-05-21T15:45:51.495Z,93870.41
2018-05-21T15:48:19.187Z,93869.05
2018-05-21T15:50:46.845Z,93877.61
2018-05-21T15:53:14.525Z,93878.50
2018-05-21T15:55:42.150Z,93880.57
2018-05-21T15:58:09.878Z,93879.83
2018-05-21T16:00:37.483Z,93873.95
2018-05-21T16:03:06.095Z,93870.78
2018-05-21T16:05:33.848Z,93860.11
2018-05-21T16:08:01.492Z,93863.97
2018-05-21T16:10:29.208Z,93866.28
2018-05-21T16:12:58.049Z,93859.56
2018-05-21T16:15:25.759Z,93861.63
2018-05-21T16:17:53.464Z,93857.77
2018-05-21T16:20:21.083Z,93859.41
2018-05-21T16:22:48.743Z,93858.56
2018-05-21T16:25:16.542Z,93865.26
2018-05-21T16:27:44.302Z,93856.91
2018-05-21T16:30:12.280Z,93859.31
2018-05-21T16:32:39.931Z,93858.42
2018-05-21T16:35:07.600Z,93865.05
2018-05-21T16:37:35.343Z,93862.16
2018-05-21T16:40:03.097Z,93865.81
2018-05-21T16:42:30.808Z,93855.03
2018-05-21T16:44:58.477Z,93853.25
2018-05-21T16:47:26.143Z,93860.81
2018-05-21T16:49:53.889Z,93857.53
2018-05-21T16:52:21.525Z,93851.64
2018-05-21T16:54:49.235Z,93859.02
2018-05-21T16:57:16.876Z,93856.81
2018-05-21T16:59:44.537Z,93855.56
2018-05-21T17:02:12.242Z,93849.28
2018-05-21T17:04:39.856Z,93847.96
2018-05-21T17:07:07.577Z,93854.35
2018-05-21T17:09:35.294Z,93860.95
2018-05-21T17:12:03.099Z,93863.16
2018-05-21T17:14:31.542Z,93863.46
2018-05-21T17:16:59.389Z,93860.66
2018-05-21T17:19:27.100Z,93862.83
2018-05-21T17:21:55.321Z,93864.56
2018-05-21T17:24:23.008Z,93869.50
2018-05-21T17:26:50.712Z,93870.19
2018-05-21T17:29:18.501Z,93877.92
2018-05-21T17:31:46.220Z,93874.89
2018-05-21T17:34:13.881Z,93876.53
2018-05-21T17:36:41.693Z,93874.53
2018-05-21T17:39:10.532Z,93875.48
2018-05-21T17:41:38.277Z,93881.37
2018-05-21T17:44:06.630Z,93878.67
2018-05-21T17:46:34.297Z,93885.16
2018-05-21T17:49:02.043Z,93889.73
2018-05-21T17:51:29.754Z,93891.47
2018-05-21T17:53:57.410Z,93890.38
2018-05-21T17:56:26.241Z,93895.63
2018-05-21T17:58:54.142Z,93895.72
2018-05-21T18:01:21.798Z,93900.84
2018-05-21T18:03:49.664Z,93905.23
2018-05-21T18:06:17.394Z,93911.06
2018-05-21T18:08:45.158Z,93915.10
2018-05-21T18:11:12.897Z,93912.65
2018-05-21T18:13:41.463Z,93917.93
2018-05-21T18:16:09.487Z,93919.50
2018-05-21T18:18:37.287Z,93924.81
2018-05-21T18:21:06.145Z,93923.50
2018-05-21T18:23:33.828Z,93930.62
2018-05-21T18:26:01.560Z,93930.19
2018-05-21T18:28:29.358Z,93923.83
2018-05-21T18:30:57.124Z,93939.80
2018-05-21T18:33:25.068Z,93942.48
2018-05-21T18:35:53.633Z,93938.77
2018-05-21T18:38:22.238Z,93941.43
2018-05-21T18:40:50.414Z,93944.34
2018-05-21T18:43:18.921Z,93948.39
2018-05-21T18:45:46.685Z,93940.84
2018-05-21T18:48:15.600Z,93952.18
2018-05-21T18:50:44.251Z,93949.37
2018-05-21T18:53:12.016Z,93953.33
2018-05-21T18:55:40.042Z,93953.84
2018-05-21T18:58:09.322Z,93955.48
2018-05-21T19:00:38.676Z,93963.38
2018-05-21T19:03:07.723Z,93966.45
2018-05-21T19:05:35.833Z,93959.22
2018-05-21T19:08:03.623Z,93962.14
2018-05-21T19:10:32.036Z,93966.88
2018-05-21T19:13:01.683Z,93964.51
2018-05-21T19:15:29.364Z,93967.73
2018-05-21T19:17:57.462Z,93969.72
2018-05-21T19:20:25.444Z,93974.19
2018-05-21T19:22:54.364Z,93975.16
2018-05-21T19:25:22.604Z,93979.13
2018-05-21T19:27:50.771Z,93981.48
2018-05-21T19:30:19.085Z,93985.05
2018-05-21T19:32:48.199Z,93980.98
2018-05-21T19:35:16.508Z,93979.13
2018-05-21T19:37:44.599Z,93982.28
2018-05-21T19:40:13.095Z,93983.48
2018-05-21T19:42:41.211Z,93987.53
2018-05-21T19:45:09.017Z,93990.02
2018-05-21T19:47:37.765Z,93983.28
2018-05-21T19:50:06.515Z,93989.30
2018-05-21T19:52:34.764Z,93990.34
2018-05-21T19:55:02.599Z,93994.52
2018-05-21T19:57:32.654Z,93997.74
2018-05-21T20:00:00.653Z,94001.94
2018-05-21T20:02:31.963Z,93999.25
2018-05-21T20:04:59.876Z,93998.41
2018-05-21T20:07:28.419Z,93991.95
2018-05-21T20:09:56.391Z,93992.88
2018-05-21T20:12:24.503Z,93999.17
2018-05-21T20:14:52.918Z,93995.17
2018-05-21T20:17:21.216Z,93993.98
2018-05-21T20:19:49.777Z,94000.09
2018-05-21T20:22:18.817Z,93993.04
2018-05-21T20:24:47.596Z,93997.25
2018-05-21T20:27:15.733Z,94002.55
2018-05-21T20:29:43.480Z,93996.18
2018-05-21T20:32:11.276Z,94003.03
2018-05-21T20:34:39.040Z,93999.77
2018-05-21T20:37:07.215Z,94003.77
2018-05-21T20:39:34.954Z,94003.02
2018-05-21T20:42:02.768Z,93997.77
2018-05-21T20:44:30.478Z,94003.41
2018-05-21T20:46:58.131Z,94001.50
2018-05-21T20:49:25.833Z,93996.80
2018-05-21T20:51:53.484Z,93996.45
2018-05-21T20:54:21.199Z,93993.77
2018-05-21T20:56:49.760Z,93990.41
2018-05-21T20:59:17.528Z,93994.97
2018-05-21T21:01:45.184Z,93995.66
2018-05-21T21:04:12.793Z,94004.38
2018-05-21T21:06:40.550Z,94005.00
2018-05-21T21:09:08.168Z,94001.94
2018-05-21T21:11:35.836Z,94009.28
2018-05-21T21:14:03.486Z,94002.71
2018-05-21T21:16:31.144Z,94006.58
2018-05-21T21:18:58.771Z,94009.62
2018-05-21T21:21:26.474Z,94002.00
2018-05-21T21:23:54.169Z,94002.81
2018-05-21T21:26:22.618Z,94001.81
2018-05-21T21:28:50.251Z,94000.05
2018-05-21T21:31:17.962Z,94011.59
2018-05-21T21:33:45.572Z,94010.72
2018-05-21T21:36:13.249Z,94005.63
2018-05-21T21:38:40.906Z,94001.66
2018-05-21T21:41:08.515Z,94003.03
2018-05-21T21:43:36.912Z,93998.92
2018-05-21T21:46:05.099Z,94000.05
2018-05-21T21:48:32.774Z,93990.59
2018-05-21T21:51:00.448Z,93992.20
2018-05-21T21:53:28.316Z,93990.53
2018-05-21T21:55:55.910Z,93995.85
2018-05-21T21:58:23.548Z,93988.16
2018-05-21T22:00:51.182Z,93984.41
2018-05-21T22:03:19.051Z,93990.25
2018-05-21T22:05:46.644Z,93990.63
2018-05-21T22:08:14.498Z,93988.90
2018-05-21T22:10:42.165Z,93981.82
2018-05-21T22:13:09.817Z,93983.80
2018-05-21T22:15:37.887Z,93980.89
2018-05-21T22:18:05.766Z,93982.50
2018-05-21T22:20:33.438Z,93978.83
2018-05-21T22:23:01.089Z,93978.52
2018-05-21T22:25:28.721Z,93980.89
2018-05-21T22:27:56.429Z,93976.59
2018-05-21T22:30:24.516Z,93976.06
2018-05-21T22:32:52.196Z,93982.34
2018-05-21T22:35:19.809Z,93971.44
2018-05-21T22:37:47.573Z,93972.89
2018-05-21T22:40:15.181Z,93964.68
2018-05-21T22:42:45.253Z,93971.33
2018-05-21T22:45:12.924Z,93965.55
2018-05-21T22:47:40.577Z,93968.56
2018-05-21T22:50:08.183Z,93961.22
2018-05-21T22:52:35.947Z,93963.89
2018-05-21T22:55:03.602Z,93958.65
2018-05-21T22:57:31.251Z,93964.14
2018-05-21T22:59:58.851Z,93957.66
2018-05-21T23:02:26.442Z,93963.34
2018-05-21T23:04:54.138Z,93956.39
2018-05-21T23:07:21.731Z,93952.98
2018-05-21T23:09:49.425Z,93949.27
2018-05-21T23:12:17.036Z,93954.34
2018-05-21T23:14:44.704Z,93956.27
2018-05-21T23:17:12.345Z,93952.24
2018-05-21T23:19:40.019Z,93952.50
2018-05-21T23:22:07.853Z,93949.34
2018-05-21T23:24:35.501Z,93951.08
2018-05-21T23:27:03.595Z,93944.92
2018-05-21T23:29:31.448Z,93944.28
2018-05-21T23:31:59.041Z,93939.01
2018-05-21T23:34:26.782Z,93944.73
2018-05-21T23:36:55.673Z,93942.96
2018-05-21T23:39:23.286Z,93947.02
2018-05-21T23:41:50.949Z,93948.37
2018-05-21T23:44:18.620Z,93945.36
2018-05-21T23:46:46.320Z,93941.06
2018-05-21T23:49:13.894Z,93939.95
2018-05-21T23:51:41.642Z,93938.27
2018-05-21T23:54:09.264Z,93938.69
2018-05-21T23:56:38.229Z,93934.64
2018-05-21T23:59:06.500Z,93936.10
